Time,TemperatureF,DewpointF,PressureIn,WindDirection,WindDirectionDegrees,WindSpeedMPH,WindSpeedGustMPH,Humidity,HourlyPrecipIn,Conditions,Clouds,dailyrainin,SoftwareType,DateUTC
2013-09-19 00:02:00,60.1,52.5,29.88,West,277,0.0,4.0,76,0.00,,,0.00,meteohub,2013-09-19 07:02:00,
2013-09-19 00:07:00,60.3,52.3,29.88,West,277,1.0,3.0,75,0.00,,,0.00,meteohub,2013-09-19 07:07:00,
2013-09-19 00:12:00,60.3,52.7,29.88,West,277,0.0,3.0,76,0.00,,,0.00,meteohub,2013-09-19 07:12:00,
2013-09-19 00:17:00,60.3,52.3,29.88,West,277,0.0,2.0,75,0.00,,,0.00,meteohub,2013-09-19 07:17:00,
2013-09-19 00:22:00,60.3,52.7,29.88,West,277,0.0,2.0,76,0.00,,,0.00,meteohub,2013-09-19 07:22:00,
2013-09-19 00:27:00,60.4,52.9,29.88,West,277,0.0,2.0,76,0.00,,,0.00,meteohub,2013-09-19 07:27:00,
2013-09-19 00:32:00,60.4,52.5,29.88,West,277,0.0,2.0,75,0.00,,,0.00,meteohub,2013-09-19 07:32:00,
2013-09-19 00:37:00,60.6,53.1,29.88,West,277,0.0,1.0,76,0.00,,,0.00,meteohub,2013-09-19 07:37:00,
2013-09-19 00:42:00,60.6,52.7,29.88,West,277,0.0,1.0,75,0.00,,,0.00,meteohub,2013-09-19 07:42:00,
2013-09-19 00:47:00,60.6,52.7,29.88,West,277,0.0,1.0,75,0.00,,,0.00,meteohub,2013-09-19 07:47:00,
2013-09-19 00:52:00,60.4,52.9,29.88,West,277,0.0,1.0,76,0.00,,,0.00,meteohub,2013-09-19 07:52:00,
2013-09-19 00:57:00,60.6,53.1,29.88,West,277,0.0,1.0,76,0.00,,,0.00,meteohub,2013-09-19 07:57:00,
2013-09-19 01:02:00,60.6,52.7,29.88,West,277,0.0,1.0,75,0.00,,,0.00,meteohub,2013-09-19 08:02:00,
2013-09-19 01:07:00,60.6,52.7,29.88,West,277,0.0,1.0,75,0.00,,,0.00,meteohub,2013-09-19 08:07:00,
2013-09-19 01:12:00,60.6,52.7,29.88,West,277,0.0,1.0,75,0.00,,,0.00,meteohub,2013-09-19 08:12:00,
2013-09-19 01:17:00,60.4,52.5,29.88,West,277,0.0,1.0,75,0.00,,,0.00,meteohub,2013-09-19 08:17:00,
2013-09-19 01:22:00,60.4,52.5,29.88,West,277,0.0,1.0,75,0.00,,,0.00,meteohub,2013-09-19 08:22:00,
2013-09-19 01:27:00,60.4,52.5,29.87,West,277,0.0,2.0,75,0.00,,,0.00,meteohub,2013-09-19 08:27:00,
2013-09-19 01:32:00,60.6,53.1,29.88,West,277,0.0,2.0,76,0.00,,,0.00,meteohub,2013-09-19 08:32:00,
2013-09-19 01:37:00,60.4,52.5,29.88,West,277,0.0,2.0,75,0.00,,,0.00,meteohub,2013-09-19 08:37:00,
2013-09-19 01:42:00,60.3,52.3,29.88,West,277,0.0,1.0,75,0.00,,,0.00,meteohub,2013-09-19 08:42:00,
2013-09-19 01:47:00,60.4,52.9,29.87,West,277,0.0,1.0,76,0.00,,,0.00,meteohub,2013-09-19 08:47:00,
2013-09-19 01:52:00,60.4,52.5,29.88,West,277,0.0,1.0,75,0.00,,,0.00,meteohub,2013-09-19 08:52:00,
2013-09-19 01:57:00,60.4,52.5,29.88,West,277,0.0,1.0,75,0.00,,,0.00,meteohub,2013-09-19 08:57:00,
2013-09-19 02:02:00,60.4,52.9,29.88,West,277,0.0,1.0,76,0.00,,,0.00,meteohub,2013-09-19 09:02:00,
2013-09-19 02:07:00,60.4,52.5,29.87,West,277,0.0,1.0,75,0.00,,,0.00,meteohub,2013-09-19 09:07:00,
2013-09-19 02:12:00,60.4,52.5,29.87,West,277,0.0,2.0,75,0.00,,,0.00,meteohub,2013-09-19 09:12:00,
2013-09-19 02:17:00,60.4,52.5,29.87,West,277,0.0,2.0,75,0.00,,,0.00,meteohub,2013-09-19 09:17:00,
2013-09-19 02:22:00,60.4,52.5,29.88,West,277,0.0,2.0,75,0.00,,,0.00,meteohub,2013-09-19 09:22:00,
2013-09-19 02:27:00,60.4,52.5,29.87,West,277,0.0,1.0,75,0.00,,,0.00,meteohub,2013-09-19 09:27:00,
2013-09-19 02:32:00,60.4,52.9,29.87,West,277,0.0,0.0,76,0.00,,,0.00,meteohub,2013-09-19 09:32:00,
2013-09-19 02:37:00,60.3,52.3,29.87,West,277,0.0,0.0,75,0.00,,,0.00,meteohub,2013-09-19 09:37:00,
2013-09-19 02:42:00,60.3,52.7,29.87,West,277,0.0,1.0,76,0.00,,,0.00,meteohub,2013-09-19 09:42:00,
2013-09-19 02:47:00,60.1,52.2,29.87,West,277,0.0,1.0,75,0.00,,,0.00,meteohub,2013-09-19 09:47:00,
2013-09-19 02:52:00,60.1,52.2,29.87,West,277,1.0,1.0,75,0.00,,,0.00,meteohub,2013-09-19 09:52:00,
2013-09-19 02:57:00,60.1,52.2,29.87,West,277,0.0,1.0,75,0.00,,,0.00,meteohub,2013-09-19 09:57:00,
2013-09-19 03:02:00,60.1,52.2,29.87,West,277,0.0,1.0,75,0.00,,,0.00,meteohub,2013-09-19 10:02:00,
2013-09-19 03:07:00,59.9,52.3,29.87,West,277,0.0,1.0,76,0.00,,,0.00,meteohub,2013-09-19 10:07:00,
2013-09-19 03:12:00,59.9,52.3,29.87,West,277,0.0,1.0,76,0.00,,,0.00,meteohub,2013-09-19 10:12:00,
2013-09-19 03:17:00,59.5,52.0,29.87,West,277,0.0,0.0,76,0.00,,,0.00,meteohub,2013-09-19 10:17:00,
2013-09-19 03:22:00,59.5,52.0,29.86,West,277,0.0,1.0,76,0.00,,,0.00,meteohub,2013-09-19 10:22:00,
2013-09-19 03:27:00,59.7,52.2,29.86,West,277,0.0,1.0,76,0.00,,,0.00,meteohub,2013-09-19 10:27:00,
2013-09-19 03:32:00,59.7,52.2,29.86,West,277,0.0,2.0,76,0.00,,,0.00,meteohub,2013-09-19 10:32:00,
2013-09-19 03:37:00,59.5,52.0,29.86,West,277,2.0,3.0,76,0.00,,,0.00,meteohub,2013-09-19 10:37:00,
2013-09-19 03:42:00,59.4,51.8,29.86,West,277,0.0,4.0,76,0.00,,,0.00,meteohub,2013-09-19 10:42:00,
2013-09-19 03:47:00,59.5,52.0,29.86,West,277,0.0,4.0,76,0.00,,,0.00,meteohub,2013-09-19 10:47:00,
2013-09-19 03:52:00,59.5,52.0,29.86,West,277,0.0,2.0,76,0.00,,,0.00,meteohub,2013-09-19 10:52:00,
2013-09-19 03:57:00,59.5,52.3,29.86,West,277,1.0,1.0,77,0.00,,,0.00,meteohub,2013-09-19 10:57:00,
2013-09-19 04:02:00,59.5,52.0,29.86,West,277,0.0,1.0,76,0.00,,,0.00,meteohub,2013-09-19 11:02:00,
2013-09-19 04:07:00,59.5,52.0,29.86,West,277,0.0,1.0,76,0.00,,,0.00,meteohub,2013-09-19 11:07:00,
2013-09-19 04:12:00,59.5,52.0,29.86,West,277,0.0,1.0,76,0.00,,,0.00,meteohub,2013-09-19 11:12:00,
2013-09-19 04:17:00,59.4,51.8,29.86,West,277,0.0,1.0,76,0.00,,,0.00,meteohub,2013-09-19 11:17:00,
2013-09-19 04:22:00,59.4,51.8,29.86,West,277,0.0,0.0,76,0.00,,,0.00,meteohub,2013-09-19 11:22:00,
2013-09-19 04:27:00,59.4,51.8,29.86,West,277,0.0,0.0,76,0.00,,,0.00,meteohub,2013-09-19 11:27:00,
2013-09-19 04:32:00,59.4,51.8,29.86,West,277,0.0,0.0,76,0.00,,,0.00,meteohub,2013-09-19 11:32:00,
2013-09-19 04:37:00,59.5,52.0,29.86,West,277,0.0,0.0,76,0.00,,,0.00,meteohub,2013-09-19 11:37:00,
2013-09-19 04:42:00,59.7,52.2,29.86,West,277,0.0,0.0,76,0.00,,,0.00,meteohub,2013-09-19 11:42:00,
2013-09-19 04:47:00,59.7,52.2,29.86,West,277,0.0,0.0,76,0.00,,,0.00,meteohub,2013-09-19 11:47:00,
2013-09-19 04:52:00,59.5,52.0,29.86,West,277,0.0,0.0,76,0.00,,,0.00,meteohub,2013-09-19 11:52:00,
2013-09-19 04:57:00,59.5,52.0,29.86,West,277,0.0,0.0,76,0.00,,,0.00,meteohub,2013-09-19 11:57:00,
2013-09-19 05:02:00,59.7,52.5,29.86,West,277,0.0,0.0,77,0.00,,,0.00,meteohub,2013-09-19 12:02:00,
2013-09-19 05:07:00,59.7,52.5,29.86,West,277,0.0,0.0,77,0.00,,,0.00,meteohub,2013-09-19 12:07:00,
2013-09-19 05:12:00,59.7,52.5,29.86,West,277,0.0,0.0,77,0.00,,,0.00,meteohub,2013-09-19 12:12:00,
2013-09-19 05:17:00,59.5,52.3,29.86,West,277,0.0,0.0,77,0.00,,,0.00,meteohub,2013-09-19 12:17:00,
2013-09-19 05:22:00,59.5,52.3,29.86,West,277,0.0,0.0,77,0.00,,,0.00,meteohub,2013-09-19 12:22:00,
2013-09-19 05:27:00,59.5,52.7,29.86,West,277,0.0,0.0,78,0.00,,,0.00,meteohub,2013-09-19 12:27:00,
2013-09-19 05:32:00,59.5,52.3,29.86,West,277,0.0,0.0,77,0.00,,,0.00,meteohub,2013-09-19 12:32:00,
2013-09-19 05:37:00,59.4,52.2,29.86,West,277,0.0,0.0,77,0.00,,,0.00,meteohub,2013-09-19 12:37:00,
2013-09-19 05:42:00,59.2,52.3,29.86,West,277,0.0,1.0,78,0.00,,,0.00,meteohub,2013-09-19 12:42:00,
2013-09-19 05:47:00,59.2,52.3,29.86,West,277,0.0,1.0,78,0.00,,,0.00,meteohub,2013-09-19 12:47:00,
2013-09-19 05:52:00,59.0,52.2,29.87,West,277,0.0,1.0,78,0.00,,,0.00,meteohub,2013-09-19 12:52:00,
2013-09-19 05:57:00,59.0,52.2,29.87,West,277,0.0,1.0,78,0.00,,,0.00,meteohub,2013-09-19 12:57:00,
2013-09-19 06:02:00,59.2,52.3,29.87,West,277,0.0,1.0,78,0.00,,,0.00,meteohub,2013-09-19 13:02:00,
2013-09-19 06:07:00,59.2,52.3,29.87,West,277,0.0,1.0,78,0.00,,,0.00,meteohub,2013-09-19 13:07:00,
2013-09-19 06:12:00,59.2,52.3,29.87,West,277,0.0,0.0,78,0.00,,,0.00,meteohub,2013-09-19 13:12:00,
2013-09-19 06:17:00,59.2,52.3,29.87,West,277,0.0,0.0,78,0.00,,,0.00,meteohub,2013-09-19 13:17:00,
2013-09-19 06:22:00,59.4,52.5,29.87,West,277,0.0,0.0,78,0.00,,,0.00,meteohub,2013-09-19 13:22:00,
2013-09-19 06:27:00,59.4,52.5,29.87,West,277,0.0,0.0,78,0.00,,,0.00,meteohub,2013-09-19 13:27:00,
2013-09-19 06:32:00,59.4,52.5,29.87,West,277,0.0,0.0,78,0.00,,,0.00,meteohub,2013-09-19 13:32:00,
2013-09-19 06:37:00,59.4,52.5,29.87,West,277,0.0,0.0,78,0.00,,,0.00,meteohub,2013-09-19 13:37:00,
2013-09-19 06:42:00,59.4,52.5,29.87,West,277,0.0,0.0,78,0.00,,,0.00,meteohub,2013-09-19 13:42:00,
2013-09-19 06:47:00,59.5,52.7,29.87,West,277,0.0,1.0,78,0.00,,,0.00,meteohub,2013-09-19 13:47:00,
2013-09-19 06:52:00,59.5,52.7,29.87,West,277,0.0,1.0,78,0.00,,,0.00,meteohub,2013-09-19 13:52:00,
2013-09-19 06:57:00,59.5,52.7,29.88,West,277,0.0,1.0,78,0.00,,,0.00,meteohub,2013-09-19 13:57:00,
2013-09-19 07:02:00,59.5,52.7,29.88,West,277,0.0,0.0,78,0.00,,,0.00,meteohub,2013-09-19 14:02:00,
2013-09-19 07:07:00,59.5,52.3,29.88,West,277,0.0,0.0,77,0.00,,,0.00,meteohub,2013-09-19 14:07:00,
2013-09-19 07:12:00,59.7,52.5,29.88,West,277,0.0,0.0,77,0.00,,,0.00,meteohub,2013-09-19 14:12:00,
2013-09-19 07:17:00,60.1,52.9,29.88,West,277,0.0,0.0,77,0.00,,,0.00,meteohub,2013-09-19 14:17:00,
2013-09-19 07:22:00,60.3,52.7,29.88,West,277,0.0,1.0,76,0.00,,,0.00,meteohub,2013-09-19 14:22:00,
2013-09-19 07:27:00,60.6,53.1,29.88,West,277,0.0,1.0,76,0.00,,,0.00,meteohub,2013-09-19 14:27:00,
2013-09-19 07:32:00,60.6,53.1,29.88,West,277,0.0,1.0,76,0.00,,,0.00,meteohub,2013-09-19 14:32:00,
2013-09-19 07:37:00,60.6,52.7,29.88,West,277,0.0,1.0,75,0.00,,,0.00,meteohub,2013-09-19 14:37:00,
2013-09-19 07:42:00,61.0,53.1,29.88,West,277,0.0,0.0,75,0.00,,,0.00,meteohub,2013-09-19 14:42:00,
2013-09-19 07:47:00,61.7,53.8,29.88,West,277,0.0,1.0,75,0.00,,,0.00,meteohub,2013-09-19 14:47:00,
2013-09-19 07:52:00,62.1,53.6,29.88,West,277,0.0,1.0,74,0.00,,,0.00,meteohub,2013-09-19 14:52:00,
2013-09-19 07:57:00,62.4,54.0,29.88,West,277,0.0,1.0,74,0.00,,,0.00,meteohub,2013-09-19 14:57:00,
2013-09-19 08:02:00,62.8,54.3,29.88,West,277,0.0,1.0,74,0.00,,,0.00,meteohub,2013-09-19 15:02:00,
2013-09-19 08:07:00,63.0,54.1,29.88,West,277,0.0,1.0,73,0.00,,,0.00,meteohub,2013-09-19 15:07:00,
2013-09-19 08:12:00,63.1,54.7,29.88,West,277,0.0,1.0,74,0.00,,,0.00,meteohub,2013-09-19 15:12:00,
2013-09-19 08:17:00,63.5,55.0,29.88,West,277,0.0,1.0,74,0.00,,,0.00,meteohub,2013-09-19 15:17:00,
2013-09-19 08:22:00,64.0,55.2,29.88,West,277,0.0,1.0,73,0.00,,,0.00,meteohub,2013-09-19 15:22:00,
2013-09-19 08:27:00,64.6,55.8,29.88,West,277,0.0,0.0,73,0.00,,,0.00,meteohub,2013-09-19 15:27:00,
2013-09-19 08:32:00,65.1,56.3,29.88,West,277,0.0,0.0,73,0.00,,,0.00,meteohub,2013-09-19 15:32:00,
2013-09-19 08:37:00,65.7,55.9,29.88,West,277,1.0,0.0,71,0.00,,,0.00,meteohub,2013-09-19 15:37:00,
2013-09-19 08:42:00,65.8,56.1,29.88,West,277,0.0,1.0,71,0.00,,,0.00,meteohub,2013-09-19 15:42:00,
2013-09-19 08:47:00,65.8,56.5,29.88,West,277,0.0,1.0,72,0.00,,,0.00,meteohub,2013-09-19 15:47:00,
2013-09-19 08:52:00,66.6,58.1,29.88,NNW,342,0.0,1.0,74,0.00,,,0.00,meteohub,2013-09-19 15:52:00,
2013-09-19 08:57:00,66.7,57.4,29.88,NE,55,0.0,1.0,72,0.00,,,0.00,meteohub,2013-09-19 15:57:00,
2013-09-19 09:02:00,66.9,57.6,29.88,ENE,57,2.0,2.0,72,0.00,,,0.00,meteohub,2013-09-19 16:02:00,
2013-09-19 09:07:00,66.6,57.6,29.89,NE,56,0.0,3.0,73,0.00,,,0.00,meteohub,2013-09-19 16:07:00,
2013-09-19 09:12:00,66.7,58.1,29.88,ENE,58,1.0,3.0,74,0.00,,,0.00,meteohub,2013-09-19 16:12:00,
2013-09-19 09:17:00,67.1,58.1,29.89,ENE,57,1.0,4.0,73,0.00,,,0.00,meteohub,2013-09-19 16:17:00,
2013-09-19 09:22:00,67.3,58.3,29.88,ENE,57,1.0,4.0,73,0.00,,,0.00,meteohub,2013-09-19 16:22:00,
2013-09-19 09:27:00,67.5,58.5,29.88,ENE,57,1.0,3.0,73,0.00,,,0.00,meteohub,2013-09-19 16:27:00,
2013-09-19 09:32:00,67.6,58.3,29.88,NE,40,1.0,5.0,72,0.00,,,0.00,meteohub,2013-09-19 16:32:00,
2013-09-19 09:37:00,67.5,58.1,29.88,NE,40,0.0,5.0,72,0.00,,,0.00,meteohub,2013-09-19 16:37:00,
2013-09-19 09:42:00,67.3,58.3,29.88,ENE,57,1.0,5.0,73,0.00,,,0.00,meteohub,2013-09-19 16:42:00,
2013-09-19 09:47:00,67.5,58.1,29.88,ENE,57,0.0,4.0,72,0.00,,,0.00,meteohub,2013-09-19 16:47:00,
2013-09-19 09:52:00,67.3,57.9,29.88,ENE,57,0.0,3.0,72,0.00,,,0.00,meteohub,2013-09-19 16:52:00,
2013-09-19 09:57:00,67.3,57.9,29.89,ENE,57,1.0,3.0,72,0.00,,,0.00,meteohub,2013-09-19 16:57:00,
2013-09-19 10:02:00,67.5,58.1,29.88,ENE,57,2.0,3.0,72,0.00,,,0.00,meteohub,2013-09-19 17:02:00,
2013-09-19 10:07:00,67.5,58.1,29.89,ENE,57,2.0,4.0,72,0.00,,,0.00,meteohub,2013-09-19 17:07:00,
2013-09-19 10:12:00,68.0,58.6,29.88,ENE,57,1.0,4.0,72,0.00,,,0.00,meteohub,2013-09-19 17:12:00,
2013-09-19 10:17:00,68.2,58.5,29.88,ENE,57,4.0,4.0,71,0.00,,,0.00,meteohub,2013-09-19 17:17:00,
2013-09-19 10:22:00,68.4,58.6,29.88,ENE,57,1.0,4.0,71,0.00,,,0.00,meteohub,2013-09-19 17:22:00,
2013-09-19 10:27:00,68.4,58.6,29.88,ENE,57,0.0,4.0,71,0.00,,,0.00,meteohub,2013-09-19 17:27:00,
2013-09-19 10:32:00,68.7,58.5,29.88,ENE,57,1.0,4.0,70,0.00,,,0.00,meteohub,2013-09-19 17:32:00,
2013-09-19 10:37:00,68.4,58.3,29.88,ENE,57,2.0,5.0,70,0.00,,,0.00,meteohub,2013-09-19 17:37:00,
2013-09-19 10:42:00,68.4,58.3,29.89,ENE,57,2.0,5.0,70,0.00,,,0.00,meteohub,2013-09-19 17:42:00,
2013-09-19 10:47:00,68.4,58.3,29.88,ENE,57,1.0,5.0,70,0.00,,,0.00,meteohub,2013-09-19 17:47:00,
2013-09-19 10:52:00,68.5,57.9,29.88,ENE,57,0.0,5.0,69,0.00,,,0.00,meteohub,2013-09-19 17:52:00,
2013-09-19 10:57:00,69.1,58.1,29.88,ENE,57,0.0,5.0,68,0.00,,,0.00,meteohub,2013-09-19 17:57:00,
2013-09-19 11:02:00,69.8,58.3,29.88,ENE,57,0.0,5.0,67,0.00,,,0.00,meteohub,2013-09-19 18:02:00,
2013-09-19 11:07:00,70.3,58.5,29.88,ENE,57,0.0,3.0,66,0.00,,,0.00,meteohub,2013-09-19 18:07:00,
2013-09-19 11:12:00,70.5,58.6,29.88,ENE,57,0.0,3.0,66,0.00,,,0.00,meteohub,2013-09-19 18:12:00,
2013-09-19 11:17:00,71.2,59.4,29.88,ENE,57,0.0,4.0,66,0.00,,,0.00,meteohub,2013-09-19 18:17:00,
2013-09-19 11:22:00,72.0,59.2,29.88,NE,48,0.0,4.0,64,0.00,,,0.00,meteohub,2013-09-19 18:22:00,
2013-09-19 11:27:00,72.7,58.8,29.88,ENE,57,1.0,3.0,62,0.00,,,0.00,meteohub,2013-09-19 18:27:00,
2013-09-19 11:32:00,72.3,58.6,29.88,NE,56,0.0,3.0,62,0.00,,,0.00,meteohub,2013-09-19 18:32:00,
2013-09-19 11:37:00,72.7,58.8,29.88,NE,51,1.0,3.0,62,0.00,,,0.00,meteohub,2013-09-19 18:37:00,
2013-09-19 11:42:00,73.2,59.0,29.88,NE,55,0.0,3.0,61,0.00,,,0.00,meteohub,2013-09-19 18:42:00,
2013-09-19 11:47:00,74.1,59.4,29.88,NE,55,1.0,3.0,60,0.00,,,0.00,meteohub,2013-09-19 18:47:00,
2013-09-19 11:52:00,74.5,59.7,29.87,NE,56,2.0,3.0,60,0.00,,,0.00,meteohub,2013-09-19 18:52:00,
2013-09-19 11:57:00,74.7,59.4,29.87,NE,56,0.0,5.0,59,0.00,,,0.00,meteohub,2013-09-19 18:57:00,
2013-09-19 12:02:00,75.0,59.2,29.87,NE,44,1.0,5.0,58,0.00,,,0.00,meteohub,2013-09-19 19:02:00,
2013-09-19 12:07:00,75.6,59.2,29.87,NNE,33,0.0,5.0,57,0.00,,,0.00,meteohub,2013-09-19 19:07:00,
2013-09-19 12:12:00,75.6,58.8,29.87,NE,56,0.0,4.0,56,0.00,,,0.00,meteohub,2013-09-19 19:12:00,
2013-09-19 12:17:00,75.7,59.0,29.87,NE,46,2.0,4.0,56,0.00,,,0.00,meteohub,2013-09-19 19:17:00,
2013-09-19 12:22:00,75.7,59.0,29.86,NE,56,0.0,5.0,56,0.00,,,0.00,meteohub,2013-09-19 19:22:00,
2013-09-19 12:27:00,76.1,59.2,29.86,NE,56,1.0,5.0,56,0.00,,,0.00,meteohub,2013-09-19 19:27:00,
2013-09-19 12:32:00,76.8,59.9,29.86,NE,56,0.0,5.0,56,0.00,,,0.00,meteohub,2013-09-19 19:32:00,
2013-09-19 12:37:00,78.1,60.1,29.86,NE,56,0.0,3.0,54,0.00,,,0.00,meteohub,2013-09-19 19:37:00,
2013-09-19 12:42:00,79.2,60.1,29.86,NE,46,0.0,3.0,52,0.00,,,0.00,meteohub,2013-09-19 19:42:00,
2013-09-19 12:47:00,80.1,59.7,29.86,ENE,57,1.0,2.0,50,0.00,,,0.00,meteohub,2013-09-19 19:47:00,
2013-09-19 12:52:00,81.1,59.0,29.86,WNW,295,2.0,4.0,47,0.00,,,0.00,meteohub,2013-09-19 19:52:00,
2013-09-19 12:57:00,81.7,58.3,29.86,West,278,1.0,4.0,45,0.00,,,0.00,meteohub,2013-09-19 19:57:00,
2013-09-19 13:02:00,81.7,57.6,29.85,West,278,0.0,5.0,44,0.00,,,0.00,meteohub,2013-09-19 20:02:00,
2013-09-19 13:07:00,81.7,57.0,29.85,West,279,0.0,5.0,43,0.00,,,0.00,meteohub,2013-09-19 20:07:00,
2013-09-19 13:12:00,81.9,56.5,29.85,NE,56,1.0,4.0,42,0.00,,,0.00,meteohub,2013-09-19 20:12:00,
2013-09-19 13:17:00,81.9,57.2,29.85,West,278,3.0,4.0,43,0.00,,,0.00,meteohub,2013-09-19 20:17:00,
2013-09-19 13:22:00,81.7,56.3,29.85,WNW,296,0.0,5.0,42,0.00,,,0.00,meteohub,2013-09-19 20:22:00,
2013-09-19 13:27:00,81.0,56.3,29.85,West,277,1.0,5.0,43,0.00,,,0.00,meteohub,2013-09-19 20:27:00,
2013-09-19 13:32:00,80.1,56.1,29.85,WNW,285,3.0,5.0,44,0.00,,,0.00,meteohub,2013-09-19 20:32:00,
2013-09-19 13:37:00,79.5,55.8,29.85,NE,56,1.0,5.0,44,0.00,,,0.00,meteohub,2013-09-19 20:37:00,
2013-09-19 13:42:00,79.2,57.2,29.84,West,277,4.0,7.0,47,0.00,,,0.00,meteohub,2013-09-19 20:42:00,
2013-09-19 13:47:00,78.8,55.6,29.84,West,281,0.0,7.0,45,0.00,,,0.00,meteohub,2013-09-19 20:47:00,
2013-09-19 13:52:00,78.6,55.6,29.84,West,279,1.0,6.0,45,0.00,,,0.00,meteohub,2013-09-19 20:52:00,
2013-09-19 13:57:00,78.8,55.6,29.83,West,278,0.0,6.0,45,0.00,,,0.00,meteohub,2013-09-19 20:57:00,
2013-09-19 14:02:00,79.2,55.9,29.84,West,280,3.0,6.0,45,0.00,,,0.00,meteohub,2013-09-19 21:02:00,
2013-09-19 14:07:00,79.2,55.9,29.83,West,278,2.0,6.0,45,0.00,,,0.00,meteohub,2013-09-19 21:07:00,
2013-09-19 14:12:00,79.0,55.8,29.83,NNE,17,1.0,6.0,45,0.00,,,0.00,meteohub,2013-09-19 21:12:00,
2013-09-19 14:17:00,78.8,55.6,29.83,West,278,0.0,8.0,45,0.00,,,0.00,meteohub,2013-09-19 21:17:00,
2013-09-19 14:22:00,79.0,55.2,29.83,ENE,59,3.0,8.0,44,0.00,,,0.00,meteohub,2013-09-19 21:22:00,
2013-09-19 14:27:00,78.4,55.4,29.83,WNW,286,1.0,6.0,45,0.00,,,0.00,meteohub,2013-09-19 21:27:00,
2013-09-19 14:32:00,77.7,54.7,29.82,West,279,1.0,5.0,45,0.00,,,0.00,meteohub,2013-09-19 21:32:00,
2013-09-19 14:37:00,77.9,54.9,29.82,West,278,3.0,6.0,45,0.00,,,0.00,meteohub,2013-09-19 21:37:00,
2013-09-19 14:42:00,78.3,55.2,29.82,West,278,0.0,6.0,45,0.00,,,0.00,meteohub,2013-09-19 21:42:00,
2013-09-19 14:47:00,78.4,55.4,29.82,West,278,3.0,6.0,45,0.00,,,0.00,meteohub,2013-09-19 21:47:00,
2013-09-19 14:52:00,78.4,55.4,29.82,West,278,2.0,6.0,45,0.00,,,0.00,meteohub,2013-09-19 21:52:00,
2013-09-19 14:57:00,78.8,54.5,29.82,West,277,4.0,6.0,43,0.00,,,0.00,meteohub,2013-09-19 21:57:00,
2013-09-19 15:02:00,78.1,53.8,29.82,West,278,1.0,6.0,43,0.00,,,0.00,meteohub,2013-09-19 22:02:00,
2013-09-19 15:07:00,77.5,54.0,29.81,West,280,2.0,9.0,44,0.00,,,0.00,meteohub,2013-09-19 22:07:00,
2013-09-19 15:12:00,77.5,54.0,29.82,West,281,4.0,9.0,44,0.00,,,0.00,meteohub,2013-09-19 22:12:00,
2013-09-19 15:17:00,77.5,54.0,29.82,ENE,62,2.0,7.0,44,0.00,,,0.00,meteohub,2013-09-19 22:17:00,
2013-09-19 15:22:00,76.6,53.1,29.82,West,277,2.0,7.0,44,0.00,,,0.00,meteohub,2013-09-19 22:22:00,
2013-09-19 15:27:00,76.3,53.4,29.81,West,277,2.0,7.0,45,0.00,,,0.00,meteohub,2013-09-19 22:27:00,
2013-09-19 15:32:00,76.1,53.2,29.81,West,281,2.0,7.0,45,0.00,,,0.00,meteohub,2013-09-19 22:32:00,
2013-09-19 15:37:00,76.3,54.0,29.81,West,278,3.0,7.0,46,0.00,,,0.00,meteohub,2013-09-19 22:37:00,
2013-09-19 15:42:00,76.1,54.3,29.81,West,278,4.0,8.0,47,0.00,,,0.00,meteohub,2013-09-19 22:42:00,
2013-09-19 15:47:00,75.0,53.4,29.81,West,278,4.0,9.0,47,0.00,,,0.00,meteohub,2013-09-19 22:47:00,
2013-09-19 15:52:00,74.3,54.0,29.81,West,278,6.0,9.0,49,0.00,,,0.00,meteohub,2013-09-19 22:52:00,
2013-09-19 15:57:00,74.5,54.1,29.81,West,277,5.0,9.0,49,0.00,,,0.00,meteohub,2013-09-19 22:57:00,
2013-09-19 16:02:00,74.1,53.2,29.81,NW,314,3.0,8.0,48,0.00,,,0.00,meteohub,2013-09-19 23:02:00,
2013-09-19 16:07:00,73.9,53.1,29.81,West,277,4.0,7.0,48,0.00,,,0.00,meteohub,2013-09-19 23:07:00,
2013-09-19 16:12:00,73.0,52.7,29.80,West,278,6.0,9.0,49,0.00,,,0.00,meteohub,2013-09-19 23:12:00,
2013-09-19 16:17:00,73.0,52.7,29.80,West,277,6.0,13.0,49,0.00,,,0.00,meteohub,2013-09-19 23:17:00,
2013-09-19 16:22:00,73.0,52.7,29.80,West,277,5.0,13.0,49,0.00,,,0.00,meteohub,2013-09-19 23:22:00,
2013-09-19 16:27:00,72.9,52.5,29.80,West,277,6.0,11.0,49,0.00,,,0.00,meteohub,2013-09-19 23:27:00,
2013-09-19 16:37:00,73.8,52.9,29.80,West,278,3.0,9.0,48,0.00,,,0.00,meteohub,2013-09-19 23:37:00,
2013-09-19 16:42:00,73.9,52.5,29.80,WNW,290,2.0,8.0,47,0.00,,,0.00,meteohub,2013-09-19 23:42:00,
2013-09-19 16:47:00,73.6,52.7,29.79,West,278,4.0,5.0,48,0.00,,,0.00,meteohub,2013-09-19 23:47:00,
2013-09-19 16:52:00,73.8,52.9,29.80,West,279,2.0,7.0,48,0.00,,,0.00,meteohub,2013-09-19 23:52:00,
2013-09-19 16:57:00,73.8,52.9,29.79,West,278,3.0,8.0,48,0.00,,,0.00,meteohub,2013-09-19 23:57:00,
2013-09-19 17:02:00,73.2,52.9,29.79,West,278,3.0,8.0,49,0.00,,,0.00,meteohub,2013-09-20 00:02:00,
2013-09-19 17:07:00,73.0,53.2,29.79,West,278,4.0,8.0,50,0.00,,,0.00,meteohub,2013-09-20 00:07:00,
2013-09-19 17:12:00,73.2,53.4,29.79,West,278,1.0,8.0,50,0.00,,,0.00,meteohub,2013-09-20 00:12:00,
2013-09-19 17:17:00,73.2,53.4,29.78,West,279,4.0,9.0,50,0.00,,,0.00,meteohub,2013-09-20 00:17:00,
2013-09-19 17:22:00,72.1,53.1,29.78,West,277,9.0,9.0,51,0.00,,,0.00,meteohub,2013-09-20 00:22:00,
2013-09-19 17:27:00,71.2,53.8,29.78,West,277,7.0,9.0,54,0.00,,,0.00,meteohub,2013-09-20 00:27:00,
2013-09-19 17:32:00,71.1,53.6,29.78,West,277,5.0,9.0,54,0.00,,,0.00,meteohub,2013-09-20 00:32:00,
2013-09-19 17:37:00,70.9,54.0,29.78,West,278,3.0,9.0,55,0.00,,,0.00,meteohub,2013-09-20 00:37:00,
2013-09-19 17:42:00,70.5,53.6,29.78,West,278,2.0,8.0,55,0.00,,,0.00,meteohub,2013-09-20 00:42:00,
2013-09-19 17:47:00,70.9,54.0,29.78,West,278,3.0,8.0,55,0.00,,,0.00,meteohub,2013-09-20 00:47:00,
2013-09-19 17:52:00,71.4,53.4,29.78,West,279,0.0,8.0,53,0.00,,,0.00,meteohub,2013-09-20 00:52:00,
2013-09-19 17:57:00,71.2,53.2,29.78,NNW,346,4.0,6.0,53,0.00,,,0.00,meteohub,2013-09-20 00:57:00,
2013-09-19 18:02:00,70.2,53.8,29.78,NW,322,2.0,9.0,56,0.00,,,0.00,meteohub,2013-09-20 01:02:00,
2013-09-19 18:07:00,68.9,54.0,29.78,West,278,5.0,9.0,59,0.00,,,0.00,meteohub,2013-09-20 01:07:00,
2013-09-19 18:12:00,68.2,54.7,29.78,WNW,296,6.0,10.0,62,0.00,,,0.00,meteohub,2013-09-20 01:12:00,
2013-09-19 18:17:00,67.3,54.3,29.78,West,279,4.0,11.0,63,0.00,,,0.00,meteohub,2013-09-20 01:17:00,
2013-09-19 18:22:00,66.6,54.9,29.78,West,278,4.0,11.0,66,0.00,,,0.00,meteohub,2013-09-20 01:22:00,
2013-09-19 18:27:00,66.2,54.9,29.78,West,277,8.0,8.0,67,0.00,,,0.00,meteohub,2013-09-20 01:27:00,
2013-09-19 18:32:00,65.8,55.0,29.78,West,278,5.0,11.0,68,0.00,,,0.00,meteohub,2013-09-20 01:32:00,
2013-09-19 18:37:00,64.9,54.9,29.78,West,277,5.0,11.0,70,0.00,,,0.00,meteohub,2013-09-20 01:37:00,
2013-09-19 18:42:00,64.2,54.7,29.78,West,279,2.0,11.0,71,0.00,,,0.00,meteohub,2013-09-20 01:42:00,
2013-09-19 18:47:00,64.0,55.2,29.78,West,277,9.0,12.0,73,0.00,,,0.00,meteohub,2013-09-20 01:47:00,
2013-09-19 18:52:00,63.3,54.5,29.78,West,278,5.0,12.0,73,0.00,,,0.00,meteohub,2013-09-20 01:52:00,
2013-09-19 18:57:00,62.8,55.0,29.79,NW,311,9.0,12.0,76,0.00,,,0.00,meteohub,2013-09-20 01:57:00,
2013-09-19 19:02:00,62.1,54.7,29.78,West,277,4.0,12.0,77,0.00,,,0.00,meteohub,2013-09-20 02:02:00,
2013-09-19 19:07:00,61.9,55.2,29.78,WNW,294,4.0,10.0,79,0.00,,,0.00,meteohub,2013-09-20 02:07:00,
2013-09-19 19:12:00,61.5,54.9,29.78,West,277,4.0,10.0,79,0.00,,,0.00,meteohub,2013-09-20 02:12:00,
2013-09-19 19:17:00,61.2,54.7,29.78,West,277,10.0,12.0,79,0.00,,,0.00,meteohub,2013-09-20 02:17:00,
2013-09-19 19:22:00,60.8,54.9,29.78,West,278,4.0,12.0,81,0.00,,,0.00,meteohub,2013-09-20 02:22:00,
2013-09-19 19:27:00,60.6,54.7,29.78,West,276,7.0,12.0,81,0.00,,,0.00,meteohub,2013-09-20 02:27:00,
2013-09-19 19:32:00,60.6,54.7,29.78,West,281,9.0,10.0,81,0.00,,,0.00,meteohub,2013-09-20 02:32:00,
2013-09-19 19:37:00,60.4,54.5,29.78,NW,308,7.0,10.0,81,0.00,,,0.00,meteohub,2013-09-20 02:37:00,
2013-09-19 19:42:00,60.4,54.5,29.78,NW,317,4.0,11.0,81,0.00,,,0.00,meteohub,2013-09-20 02:42:00,
2013-09-19 19:47:00,60.4,54.5,29.78,West,265,4.0,11.0,81,0.00,,,0.00,meteohub,2013-09-20 02:47:00,
2013-09-19 19:52:00,60.4,54.5,29.79,WNW,283,4.0,13.0,81,0.00,,,0.00,meteohub,2013-09-20 02:52:00,
2013-09-19 19:57:00,60.4,54.5,29.79,NW,321,4.0,13.0,81,0.00,,,0.00,meteohub,2013-09-20 02:57:00,
2013-09-19 20:02:00,60.4,54.5,29.79,WNW,285,11.0,13.0,81,0.00,,,0.00,meteohub,2013-09-20 03:02:00,
2013-09-19 20:07:00,60.3,54.3,29.79,NNW,342,4.0,11.0,81,0.00,,,0.00,meteohub,2013-09-20 03:07:00,
2013-09-19 20:12:00,60.3,54.1,29.79,North,5,3.0,11.0,80,0.00,,,0.00,meteohub,2013-09-20 03:12:00,
2013-09-19 20:17:00,60.3,54.1,29.80,NW,317,5.0,11.0,80,0.00,,,0.00,meteohub,2013-09-20 03:17:00,
2013-09-19 20:22:00,60.1,54.0,29.80,NW,313,2.0,11.0,80,0.00,,,0.00,meteohub,2013-09-20 03:22:00,
2013-09-19 20:27:00,60.1,54.0,29.81,WSW,242,6.0,11.0,80,0.00,,,0.00,meteohub,2013-09-20 03:27:00,
2013-09-19 20:32:00,59.9,53.8,29.81,West,281,5.0,11.0,80,0.00,,,0.00,meteohub,2013-09-20 03:32:00,
2013-09-19 20:37:00,59.7,53.6,29.81,WNW,283,6.0,11.0,80,0.00,,,0.00,meteohub,2013-09-20 03:37:00,
2013-09-19 20:42:00,59.4,53.8,29.81,North,10,2.0,13.0,82,0.00,,,0.00,meteohub,2013-09-20 03:42:00,
2013-09-19 20:47:00,59.2,53.6,29.81,WNW,286,5.0,13.0,82,0.00,,,0.00,meteohub,2013-09-20 03:47:00,
2013-09-19 20:52:00,59.2,53.6,29.81,NW,322,5.0,11.0,82,0.00,,,0.00,meteohub,2013-09-20 03:52:00,
2013-09-19 20:57:00,59.0,53.6,29.81,West,276,7.0,11.0,82,0.00,,,0.00,meteohub,2013-09-20 03:57:00,
2013-09-19 21:02:00,59.0,53.6,29.82,NW,319,3.0,10.0,82,0.00,,,0.00,meteohub,2013-09-20 04:02:00,
2013-09-19 21:07:00,58.8,53.4,29.82,NE,38,2.0,10.0,82,0.00,,,0.00,meteohub,2013-09-20 04:07:00,
2013-09-19 21:12:00,58.8,53.4,29.82,SSW,211,3.0,10.0,82,0.00,,,0.00,meteohub,2013-09-20 04:12:00,
2013-09-19 21:17:00,58.6,53.4,29.82,WNW,303,3.0,8.0,83,0.00,,,0.00,meteohub,2013-09-20 04:17:00,
2013-09-19 21:22:00,58.5,53.2,29.82,NW,307,2.0,7.0,83,0.00,,,0.00,meteohub,2013-09-20 04:22:00,
2013-09-19 21:27:00,58.5,53.6,29.82,WNW,292,4.0,9.0,84,0.00,,,0.00,meteohub,2013-09-20 04:27:00,
2013-09-19 21:32:00,58.3,53.4,29.82,NNW,328,4.0,9.0,84,0.00,,,0.00,meteohub,2013-09-20 04:32:00,
2013-09-19 21:37:00,58.3,53.4,29.82,West,267,3.0,9.0,84,0.00,,,0.00,meteohub,2013-09-20 04:37:00,
2013-09-19 21:42:00,58.3,53.4,29.82,West,268,2.0,9.0,84,0.00,,,0.00,meteohub,2013-09-20 04:42:00,
2013-09-19 21:47:00,58.1,53.2,29.82,WSW,248,2.0,11.0,84,0.00,,,0.00,meteohub,2013-09-20 04:47:00,
2013-09-19 21:52:00,57.9,53.1,29.82,NW,317,4.0,11.0,84,0.00,,,0.00,meteohub,2013-09-20 04:52:00,
2013-09-19 21:57:00,57.9,53.4,29.82,WNW,294,5.0,11.0,85,0.00,,,0.00,meteohub,2013-09-20 04:57:00,
2013-09-19 22:02:00,57.7,53.2,29.82,WNW,303,4.0,9.0,85,0.00,,,0.00,meteohub,2013-09-20 05:02:00,
2013-09-19 22:07:00,57.7,53.2,29.82,WSW,256,4.0,9.0,85,0.00,,,0.00,meteohub,2013-09-20 05:07:00,
2013-09-19 22:12:00,57.7,53.2,29.82,NNW,348,5.0,9.0,85,0.00,,,0.00,meteohub,2013-09-20 05:12:00,
2013-09-19 22:17:00,57.7,52.9,29.82,WSW,253,3.0,9.0,84,0.00,,,0.00,meteohub,2013-09-20 05:17:00,
2013-09-19 22:22:00,57.9,53.1,29.82,West,264,1.0,9.0,84,0.00,,,0.00,meteohub,2013-09-20 05:22:00,
2013-09-19 22:27:00,57.7,52.9,29.82,ENE,69,2.0,9.0,84,0.00,,,0.00,meteohub,2013-09-20 05:27:00,
2013-09-19 22:32:00,57.7,52.9,29.82,NW,318,2.0,8.0,84,0.00,,,0.00,meteohub,2013-09-20 05:32:00,
2013-09-19 22:37:00,57.9,53.1,29.82,WNW,292,2.0,8.0,84,0.00,,,0.00,meteohub,2013-09-20 05:37:00,
2013-09-19 22:42:00,57.9,53.1,29.82,NW,322,3.0,8.0,84,0.00,,,0.00,meteohub,2013-09-20 05:42:00,
2013-09-19 22:47:00,57.9,53.1,29.83,NW,313,3.0,8.0,84,0.00,,,0.00,meteohub,2013-09-20 05:47:00,
2013-09-19 22:52:00,57.9,52.7,29.83,NW,315,2.0,8.0,83,0.00,,,0.00,meteohub,2013-09-20 05:52:00,
2013-09-19 22:57:00,57.9,52.7,29.83,WNW,299,3.0,8.0,83,0.00,,,0.00,meteohub,2013-09-20 05:57:00,
2013-09-19 23:02:00,57.9,52.7,29.83,WNW,284,2.0,8.0,83,0.00,,,0.00,meteohub,2013-09-20 06:02:00,
2013-09-19 23:07:00,57.7,52.7,29.83,WNW,285,3.0,7.0,83,0.00,,,0.00,meteohub,2013-09-20 06:07:00,
2013-09-19 23:12:00,57.9,52.7,29.83,WNW,286,4.0,6.0,83,0.00,,,0.00,meteohub,2013-09-20 06:12:00,
2013-09-19 23:17:00,57.7,52.7,29.83,WNW,290,4.0,6.0,83,0.00,,,0.00,meteohub,2013-09-20 06:17:00,
2013-09-19 23:22:00,57.7,52.7,29.82,NW,304,3.0,5.0,83,0.00,,,0.00,meteohub,2013-09-20 06:22:00,
2013-09-19 23:27:00,57.7,52.7,29.82,WNW,285,2.0,5.0,83,0.00,,,0.00,meteohub,2013-09-20 06:27:00,
2013-09-19 23:32:00,57.6,52.5,29.82,WNW,302,1.0,5.0,83,0.00,,,0.00,meteohub,2013-09-20 06:32:00,
2013-09-19 23:37:00,57.6,52.5,29.82,West,267,3.0,5.0,83,0.00,,,0.00,meteohub,2013-09-20 06:37:00,
2013-09-19 23:42:00,57.6,52.5,29.82,NW,326,4.0,5.0,83,0.00,,,0.00,meteohub,2013-09-20 06:42:00,
2013-09-19 23:47:00,57.6,52.5,29.82,West,261,3.0,5.0,83,0.00,,,0.00,meteohub,2013-09-20 06:47:00,
2013-09-19 23:52:00,58.3,53.1,29.82,West,261,3.0,5.0,83,0.00,,,0.00,meteohub,2013-09-20 06:52:00,
2013-09-19 23:57:00,58.3,53.1,29.82,West,278,0.0,4.0,83,0.00,,,0.00,meteohub,2013-09-20 06:57:00,